AirNav   Bose Proflight Series 2 Wireless Aviation Headset
 
 1325 users online  

76OR Camp Withycombe Heliport
Clackamas, Oregon, USA

GOING TO CLACKAMAS?


FAA INFORMATION EFFECTIVE 07 NOVEMBER 2019

Location

FAA Identifier: 76OR
Lat/Long: 45-24-50.3150N 122-33-30.3430W
45-24.838583N 122-33.505717W
45.4139764,-122.5584286
(estimated)
Elevation: 113 ft. / 34 m (estimated)
From city: 1 mile E of CLACKAMAS, OR
Time zone: UTC -8 (UTC -7 during Daylight Saving Time)
Zip code: 97015

Heliport Operations

Heliport use: CLOSED INDEFINITELY
Activation date: 05/2013
Control tower: no
ARTCC: SEATTLE CENTER
FSS: MC MINNVILLE FLIGHT SERVICE STATION
Attendance: UNATNDD
Segmented circle: no

Heliport Communications

WX ASOS at TTD (10 nm NE): 135.625 (503-492-2887)
WX ASOS at PDX (11 nm N): PHONE (503) 493-7687
WX ASOS at VUO (13 nm N): 135.125 (360-696-1280)
WX ASOS at UAO (13 nm SW): PHONE 503-678-3011
WX ASOS at HIO (18 nm NW): PHONE 503-640-2984

Nearby radio navigation aids

VOR radial/distance  VOR name  Freq  Var
UBGr057/18.1NEWBERG VOR/DME117.4021E
BTGr155/20.1BATTLE GROUND VORTAC116.6021E

 
NDB name  Hdg/Dist  Freq  Var  ID
BANKS106/24.335616EPND .--. -. -..

Heliport Services

Runway Information

Helipad H1

Dimensions: 68 x 34 ft. / 21 x 10 m
Surface: concrete
Traffic pattern: leftleft

Heliport Ownership and Management from official FAA records

Ownership: Privately-owned
Owner: OREGON ARMY NATIONAL GUARD
1776 MILITIA WAY, SE
SALEM, OR 97309
Phone 503-584-3992
Manager: TODD E. FARMER
1776 MILITIA WAY, SE
SALEM, OR 97309
Phone 503-584-3992
OTHER CONTACT - CW5 GREGG SCHROEDER 503-584-3472

Additional Remarks

RSTD-OFFL BUS ONLY. PPR DSN 355-5931, C503-683-5931 DURING NORMAL BUSINESS HOURS.
RSTD-ALL ACFT APCH FROM AND DEP TO N. AVOID OVFT OF CANTONMENT AREA
CONTACT OPERATIONS 5 MINUTES OUT ON PRIM FM 46.90, ALTN VHF 139.60.
FOR CD CTC PORTLAND APCH AT 503-493-7545.
(ARPT STATUS) ARPT CLSD INDEFLY.

Instrument Procedures

There are no published instrument procedures at 76OR.

Some nearby airports with instrument procedures:

KTTD - Portland-Troutdale Airport (10 nm NE)
KPDX - Portland International Airport (11 nm N)
KVUO - Pearson Field Airport (13 nm N)
KUAO - Aurora State Airport (13 nm SW)
KHIO - Portland-Hillsboro Airport (18 nm NW)
 
Loc | Ops | Rwys | IFR | FBO | Links
Com | Nav | Svcs | Stats | Notes
Aerial photo
No photo
 
Airport distance calculator
Flying to Camp Withycombe Heliport? Find the distance to fly.

From to 76OR

Sunrise and sunset
Times for 13-Nov-2019
 Local
(UTC-8)
 Zulu
(UTC)
Morning civil twilight06:3614:36
Sunrise07:0715:07
Sunset16:4200:42
Evening civil twilight17:1401:14

Current date and time
Zulu (UTC)  13-Nov-2019 20:49:05
Local (UTC-8)  13-Nov-2019 12:49:05
 
METAR
KTTD 
10nm NE 
131953Z 08012G16KT 10SM CLR 13/07 A3006 RMK AO2 SLP180 T01280067
KPDX 
10nm N 
131953Z 31004KT 10SM OVC006 10/08 A3008 RMK AO2 SLP186 T01000078
KVUO 
13nm N 
131953Z AUTO 00000KT 10SM OVC006 10/08 A3008 RMK AO2 SLP184 T01000078
KUAO 
13nm SW 
132039Z 02007KT 10SM FEW013 13/08 A3004 RMK AO2 T01280078
KHIO 
18nm NW 
131953Z 06005KT 7SM BKN009 11/08 A3007 RMK AO2 CIG 006V012 SLP183 T01110078
TAF
KTTD 
10nm NE 
131841Z 1319/1418 29004KT P6SM SCT006 SCT010 FM132100 09013KT P6SM FEW250 FM140400 09009G16KT P6SM OVC250 FM141700 09009G16KT 6SM BR OVC050
KPDX 
10nm N 
131728Z 1318/1418 32007KT 2SM BR OVC003 FM132030 08008KT P6SM OVC020 FM140500 10006KT P6SM SCT200 FM140800 11005KT 1/2SM FG OVC010 FM141400 11004KT 4SM BR OVC003
KUAO 
13nm SW 
131728Z 1318/1418 01006KT P6SM OVC005 FM132000 03006KT P6SM OVC015 FM132200 02004KT P6SM OVC250 FM140800 02002KT 3SM BR BKN010 FM141400 01002KT 6SM BR OVC007 FM141600 28002KT 1/4SM FG OVC003
KHIO 
18nm NW 
131728Z 1318/1418 07005KT 2SM BR OVC003 FM132000 VRB02KT 4SM BR BKN015 FM132100 VRB02KT P6SM FEW250 FM140600 VRB03KT 4SM BR SCT010 FM141000 10002KT 1 1/2SM BR OVC010 FM141500 24002KT 1/4SM FG OVC003
NOTAMs
Click for the latest NOTAMs
NOTAMs are issued by the DoD/FAA and will open in a separate window not controlled by AirNav.

 

 
 

Would you like to see your business listed on this page?

 If your business provides an interesting product or service to pilots, flight crews, aircraft, or users of the Camp Withycombe Heliport, you should consider listing it here.  To start the listing process, click on the button below
 
Add a business
 

Other Pages about Camp Withycombe Heliport

Update a link
 
Copyright © AirNav, LLC. All rights reserved. Privacy Policy  Contact